Time;durP1;ratioP1;P1;durP2;ratioP2;P2;SDS_P1;SDS_P2;PMS_P1;PMS_P2;Temp;Humidity;BMP_temperature;BMP_pressure;BME280_temperature;BME280_humidity;BME280_pressure;Samples;Min_cycle;Max_cycle;Signal;HPM_P1;HPM_P2
2021/04/25 00:02:05;;;;;;;2.90;2.80;;;;;;;4.95;56.53;102190.00;4412563;32;20153;-64
2021/04/25 00:04:31;;;;;;;3.08;2.97;;;;;;;5.16;57.09;102238.47;4414532;32;20845;-65
2021/04/25 00:06:56;;;;;;;3.08;2.97;;;;;;;5.17;57.80;102244.53;4411280;32;20079;-63
2021/04/25 00:09:21;;;;;;;3.00;2.90;;;;;;;5.14;57.72;102242.81;4415004;32;20707;-63
2021/04/25 00:11:47;;;;;;;3.75;3.65;;;;;;;4.73;58.36;102190.94;4407362;32;20696;-64
2021/04/25 00:14:13;;;;;;;2.87;2.78;;;;;;;5.01;58.67;102243.72;4413012;32;20077;-64
2021/04/25 00:16:38;;;;;;;2.83;2.72;;;;;;;4.94;58.63;102242.03;4415413;32;20065;-64
2021/04/25 00:19:05;;;;;;;3.20;3.10;;;;;;;4.98;58.86;102261.97;4415191;32;20083;-63
2021/04/25 00:21:30;;;;;;;2.87;2.78;;;;;;;4.91;59.37;102240.31;4411869;32;20087;-64
2021/04/25 00:23:56;;;;;;;3.08;2.97;;;;;;;4.83;59.57;102243.81;4411677;32;20065;-62
2021/04/25 00:26:21;;;;;;;2.70;2.60;;;;;;;4.80;59.62;102234.28;4413731;32;20073;-64
2021/04/25 00:28:46;;;;;;;2.90;2.80;;;;;;;4.70;60.64;102224.78;4411395;32;20069;-63
2021/04/25 00:31:12;;;;;;;4.15;3.95;;;;;;;4.70;60.38;102224.78;4407968;32;20547;-65
2021/04/25 00:33:37;;;;;;;3.10;2.90;;;;;;;4.68;60.30;102224.78;4413207;32;20080;-65
2021/04/25 00:36:03;;;;;;;2.70;2.60;;;;;;;4.46;61.02;102195.38;4413432;32;20167;-66
2021/04/25 00:38:29;;;;;;;2.80;2.70;;;;;;;4.65;60.53;102227.41;4412527;32;20724;-65
2021/04/25 00:40:54;;;;;;;3.30;3.20;;;;;;;4.61;61.31;102233.50;4413188;32;20073;-65
2021/04/25 00:43:19;;;;;;;5.37;3.17;;;;;;;4.58;61.10;102230.88;4412353;32;20607;-65
2021/04/25 00:45:45;;;;;;;3.08;2.97;;;;;;;4.53;61.18;102232.63;4419768;32;20083;-65
2021/04/25 00:48:10;;;;;;;3.72;3.62;;;;;;;4.50;61.48;102227.44;4411420;32;20064;-65
2021/04/25 00:50:36;;;;;;;2.90;2.80;;;;;;;4.36;61.75;102212.72;4408982;32;20428;-62
2021/04/25 00:53:01;;;;;;;2.90;2.80;;;;;;;4.37;62.49;102229.19;4414094;32;20511;-63
2021/04/25 00:55:28;;;;;;;3.03;2.92;;;;;;;4.36;62.59;102228.31;4408777;32;20091;-63
2021/04/25 00:57:54;;;;;;;2.90;2.80;;;;;;;4.31;62.65;102230.09;4439137;32;20060;-63
2021/04/25 01:00:19;;;;;;;2.83;2.72;;;;;;;4.30;62.95;102219.69;4414173;32;20074;-61
2021/04/25 01:02:45;;;;;;;3.42;3.33;;;;;;;3.91;62.44;102164.28;4423745;32;20076;-62
2021/04/25 01:05:11;;;;;;;3.00;2.90;;;;;;;4.29;62.53;102229.22;4404248;32;20098;-62
2021/04/25 01:07:37;;;;;;;2.72;2.62;;;;;;;4.23;63.45;102238.72;4414189;32;20061;-61
2021/04/25 01:10:03;;;;;;;2.80;2.70;;;;;;;4.18;63.47;102237.00;4410699;32;20141;-62
2021/04/25 01:12:28;;;;;;;2.80;2.70;;;;;;;4.13;64.20;102224.88;4412785;32;20061;-63
2021/04/25 01:14:54;;;;;;;2.83;2.72;;;;;;;4.13;63.44;102233.56;4409756;32;20103;-63
2021/04/25 01:17:19;;;;;;;2.97;2.87;;;;;;;4.09;63.42;102229.25;4409328;32;20064;-63
2021/04/25 01:19:44;;;;;;;3.50;3.30;;;;;;;4.15;63.74;102228.34;4411412;32;20586;-62
2021/04/25 01:22:10;;;;;;;3.00;2.90;;;;;;;4.08;64.09;102229.22;4411579;32;20076;-62
2021/04/25 01:24:35;;;;;;;3.40;3.30;;;;;;;4.04;64.41;102235.28;4410967;32;20092;-63
2021/04/25 01:27:00;;;;;;;2.62;2.53;;;;;;;4.03;64.82;102230.94;4412768;32;20095;-62
2021/04/25 01:29:26;;;;;;;2.62;2.53;;;;;;;3.98;65.45;102242.22;4414334;32;20107;-63
2021/04/25 01:31:51;;;;;;;3.00;2.90;;;;;;;3.91;65.42;102239.59;4408312;32;20089;-62
2021/04/25 01:34:17;;;;;;;2.80;2.70;;;;;;;3.82;65.46;102231.84;4410564;32;20579;-62
2021/04/25 01:36:42;;;;;;;3.05;2.95;;;;;;;3.81;65.88;102230.97;4410323;32;20085;-63
2021/04/25 01:39:07;;;;;;;2.92;2.83;;;;;;;3.76;65.22;102227.50;4411692;32;20084;-63
2021/04/25 01:41:33;;;;;;;2.40;2.30;;;;;;;3.58;66.38;102211.03;4411156;32;20457;-63
2021/04/25 01:43:58;;;;;;;2.70;2.60;;;;;;;3.67;66.51;102235.25;4412944;32;20069;-64
2021/04/25 01:46:23;;;;;;;2.75;2.65;;;;;;;3.63;65.95;102230.94;4410499;32;20079;-62
2021/04/25 01:48:49;;;;;;;2.70;2.60;;;;;;;3.28;65.77;102166.88;4413095;32;20122;-63
2021/04/25 01:51:14;;;;;;;2.60;2.50;;;;;;;3.67;65.45;102225.75;4410413;32;20978;-63
2021/04/25 01:53:40;;;;;;;2.80;2.70;;;;;;;3.59;65.82;102228.34;4412201;32;20176;-63
2021/04/25 01:56:05;;;;;;;2.70;2.60;;;;;;;3.28;66.50;102172.91;4411053;32;20056;-62
2021/04/25 01:58:31;;;;;;;2.60;2.50;;;;;;;3.65;65.52;102234.38;4409898;32;20069;-63
2021/04/25 02:00:56;;;;;;;4.37;4.18;;;;;;;3.64;66.31;102235.28;4407336;32;20650;-64
2021/04/25 02:03:22;;;;;;;2.70;2.60;;;;;;;3.63;65.67;102237.00;4413912;32;20126;-63
2021/04/25 02:05:47;;;;;;;2.92;2.83;;;;;;;3.61;65.87;102238.75;4412326;32;20135;-63
2021/04/25 02:08:13;;;;;;;2.90;2.80;;;;;;;3.56;66.77;102248.22;4408743;32;20087;-64
2021/04/25 02:10:39;;;;;;;2.42;2.33;;;;;;;3.51;66.18;102239.59;4427157;32;20069;-62
2021/04/25 02:13:04;;;;;;;2.50;2.40;;;;;;;3.51;66.92;102243.03;4410539;32;20228;-62
2021/04/25 02:15:30;;;;;;;2.70;2.60;;;;;;;3.06;66.98;102182.37;4423641;32;20595;-64
2021/04/25 02:17:55;;;;;;;2.70;2.60;;;;;;;3.37;67.51;102249.94;4420891;32;20057;-62
2021/04/25 02:20:21;;;;;;;2.65;2.55;;;;;;;3.42;67.08;102252.53;4417625;32;20079;-62
2021/04/25 02:22:46;;;;;;;2.70;2.60;;;;;;;3.35;67.30;102249.94;4409581;32;20091;-62
2021/04/25 02:25:13;;;;;;;2.80;2.70;;;;;;;3.18;66.80;102234.28;4413549;32;20528;-65
2021/04/25 02:27:38;;;;;;;2.60;2.50;;;;;;;3.07;67.45;102228.22;4409411;32;20720;-63
2021/04/25 02:30:08;;;;;;;2.90;2.70;;;;;;;3.15;67.62;102249.88;4437941;32;20207;-62
2021/04/25 02:32:34;;;;;;;2.70;2.60;;;;;;;3.20;67.72;102253.31;4409555;32;20065;-63
2021/04/25 02:34:59;;;;;;;2.90;2.80;;;;;;;2.87;68.40;102201.34;4413890;32;20075;-63
2021/04/25 02:37:25;;;;;;;3.22;3.12;;;;;;;3.15;68.54;102249.88;4410412;32;20075;-65
2021/04/25 02:39:50;;;;;;;2.70;2.60;;;;;;;3.07;68.42;102240.31;4414759;32;20693;-63
2021/04/25 02:42:15;;;;;;;3.08;2.87;;;;;;;2.96;69.72;102240.25;4415813;32;20069;-63
2021/04/25 02:44:41;;;;;;;3.33;3.22;;;;;;;3.00;68.89;102263.63;4412786;32;20069;-62
2021/04/25 02:47:06;;;;;;;2.70;2.60;;;;;;;2.92;69.71;102247.16;4416615;32;20075;-63
2021/04/25 02:49:31;;;;;;;2.70;2.60;;;;;;;2.46;69.88;102202.00;4414557;32;20068;-62
2021/04/25 02:51:57;;;;;;;2.40;2.30;;;;;;;2.64;69.71;102253.06;4428551;32;20080;-62
2021/04/25 02:54:22;;;;;;;2.60;2.50;;;;;;;2.65;70.82;102255.69;4413662;32;20088;-62
2021/04/25 02:56:48;;;;;;;2.65;2.55;;;;;;;2.57;70.30;102254.78;4411927;32;20510;-62
2021/04/25 02:59:13;;;;;;;2.60;2.50;;;;;;;2.28;71.28;102220.88;4412821;32;20119;-64
2021/04/25 03:01:39;;;;;;;2.60;2.50;;;;;;;2.48;71.34;102262.47;4413957;32;20602;-64
2021/04/25 03:04:04;;;;;;;2.60;2.50;;;;;;;2.44;71.24;102247.78;4438094;32;20096;-63
2021/04/25 03:06:30;;;;;;;2.60;2.50;;;;;;;2.48;71.23;102257.28;4412566;32;20077;-64
2021/04/25 03:08:55;;;;;;;2.60;2.50;;;;;;;2.44;71.10;102250.34;4437851;32;20108;-64
2021/04/25 03:11:20;;;;;;;2.50;2.40;;;;;;;2.37;71.70;102249.47;4412947;32;20233;-64
2021/04/25 03:13:46;;;;;;;3.22;3.12;;;;;;;2.31;71.94;102246.84;4411664;32;20096;-63
2021/04/25 03:16:11;;;;;;;2.50;2.40;;;;;;;2.38;72.91;102248.59;4414246;32;20088;-65
2021/04/25 03:18:36;;;;;;;2.70;2.60;;;;;;;2.37;73.05;102247.72;4419762;32;20612;-66
2021/04/25 03:21:02;;;;;;;2.60;2.50;;;;;;;2.37;72.37;102249.47;4413031;32;20068;-66
2021/04/25 03:23:27;;;;;;;3.10;2.80;;;;;;;2.42;72.49;102254.66;4413374;32;20084;-65
2021/04/25 03:25:52;;;;;;;2.90;2.80;;;;;;;2.35;72.51;102248.59;4437503;32;20120;-64
2021/04/25 03:28:19;;;;;;;2.40;2.30;;;;;;;2.41;72.50;102259.00;4415035;32;20484;-63
2021/04/25 03:30:45;;;;;;;2.72;2.62;;;;;;;2.40;72.87;102263.28;4414929;32;20098;-64
2021/04/25 03:33:10;;;;;;;5.35;5.15;;;;;;;2.46;72.38;102261.59;4412612;32;20519;-64
2021/04/25 03:35:36;;;;;;;2.40;2.30;;;;;;;2.44;72.83;102269.34;4413484;32;20137;-65
2021/04/25 03:38:01;;;;;;;3.22;3.03;;;;;;;2.38;72.93;102264.13;4416054;32;20089;-64
2021/04/25 03:40:26;;;;;;;2.60;2.50;;;;;;;2.35;73.03;102274.50;4410034;32;20069;-64
2021/04/25 03:42:52;;;;;;;2.47;2.37;;;;;;;2.47;72.60;102266.81;4404647;32;20081;-64
2021/04/25 03:45:17;;;;;;;2.50;2.40;;;;;;;2.50;72.42;102261.63;4413761;32;20068;-64
2021/04/25 03:47:44;;;;;;;2.67;2.58;;;;;;;2.49;72.00;102272.00;4413946;32;20880;-66
2021/04/25 03:50:10;;;;;;;3.30;3.20;;;;;;;2.43;72.71;102265.03;4413172;32;20836;-65
2021/04/25 03:52:35;;;;;;;2.40;2.30;;;;;;;2.35;72.58;102285.72;4415258;32;20187;-63
2021/04/25 03:55:00;;;;;;;2.60;2.50;;;;;;;2.23;72.82;102262.31;4414565;32;20085;-64
2021/04/25 03:57:26;;;;;;;2.60;2.50;;;;;;;2.25;73.24;102273.56;4412289;32;20072;-63
2021/04/25 03:59:51;;;;;;;2.60;2.50;;;;;;;2.14;73.55;102265.69;4415248;32;20469;-61
2021/04/25 04:02:16;;;;;;;2.70;2.60;;;;;;;2.15;74.36;102267.44;4410934;32;20091;-62
2021/04/25 04:04:42;;;;;;;2.50;2.40;;;;;;;2.06;73.38;102269.06;4426141;32;20084;-62
2021/04/25 04:07:07;;;;;;;2.80;2.70;;;;;;;2.04;74.43;102260.41;4411346;32;20119;-62
2021/04/25 04:09:32;;;;;;;2.83;2.72;;;;;;;1.95;73.91;102267.25;4414794;32;20079;-62
2021/04/25 04:11:58;;;;;;;2.80;2.70;;;;;;;2.06;74.45;102274.25;4412474;32;20131;-63
2021/04/25 04:14:23;;;;;;;2.62;2.53;;;;;;;2.04;73.51;102270.78;4414465;32;20072;-61
2021/04/25 04:16:48;;;;;;;2.65;2.55;;;;;;;1.98;74.40;102269.00;4410607;32;20073;-64
2021/04/25 04:19:14;;;;;;;2.62;2.53;;;;;;;1.87;74.82;102271.50;4417051;32;20527;-64
2021/04/25 04:21:39;;;;;;;2.90;2.80;;;;;;;1.87;74.15;102275.81;4409706;32;20099;-63
2021/04/25 04:24:05;;;;;;;2.70;2.60;;;;;;;1.85;74.39;102275.78;4410634;32;20613;-63
2021/04/25 04:26:30;;;;;;;3.40;3.22;;;;;;;1.97;74.42;102270.72;4412164;32;20069;-62
2021/04/25 04:28:56;;;;;;;3.90;3.75;;;;;;;2.03;74.15;102274.25;4412516;32;20544;-62
2021/04/25 04:31:21;;;;;;;2.50;2.40;;;;;;;1.94;73.29;102246.53;4402389;32;20080;-62
2021/04/25 04:33:46;;;;;;;2.90;2.80;;;;;;;2.04;73.91;102274.22;4411997;32;20074;-62
2021/04/25 04:36:12;;;;;;;2.62;2.53;;;;;;;2.06;73.41;102274.25;4411673;32;20474;-63
2021/04/25 04:38:37;;;;;;;2.70;2.60;;;;;;;2.07;73.23;102274.28;4409374;32;20081;-63
2021/04/25 04:41:02;;;;;;;2.70;2.60;;;;;;;2.13;74.05;102271.72;4414227;32;20080;-63
2021/04/25 04:43:28;;;;;;;2.70;2.60;;;;;;;2.24;73.41;102271.81;4411083;32;20394;-62
2021/04/25 04:45:53;;;;;;;2.40;2.30;;;;;;;2.40;72.80;102268.47;4399684;32;20066;-62
2021/04/25 04:48:19;;;;;;;2.50;2.40;;;;;;;2.59;72.65;102240.09;4411373;32;20072;-63
2021/04/25 04:50:44;;;;;;;2.70;2.60;;;;;;;3.22;71.93;102271.50;4402567;32;20998;-62
2021/04/25 04:53:10;;;;;;;2.50;2.40;;;;;;;3.48;70.37;102262.94;4411898;32;20148;-63
2021/04/25 04:55:35;;;;;;;2.58;2.47;;;;;;;3.73;68.90;102262.12;4415078;32;20473;-62
2021/04/25 04:58:00;;;;;;;2.70;2.60;;;;;;;3.79;67.75;102266.47;4410569;32;20264;-63
2021/04/25 05:00:26;;;;;;;2.60;2.50;;;;;;;3.79;68.18;102263.87;4411026;32;20073;-61
2021/04/25 05:02:51;;;;;;;2.78;2.67;;;;;;;3.67;69.12;102267.31;4414134;32;20636;-63
2021/04/25 05:05:17;;;;;;;2.70;2.60;;;;;;;3.60;68.98;102266.41;4410740;32;20076;-62
2021/04/25 05:07:42;;;;;;;2.67;2.58;;;;;;;3.58;69.45;102272.47;4414261;32;20555;-62
2021/04/25 05:10:08;;;;;;;2.90;2.80;;;;;;;3.54;69.91;102271.59;4411794;32;20068;-62
2021/04/25 05:12:33;;;;;;;2.80;2.70;;;;;;;3.52;69.75;102285.44;4413390;32;20121;-63
2021/04/25 05:14:59;;;;;;;2.90;2.80;;;;;;;3.56;69.66;102282.84;4410082;32;20122;-62
2021/04/25 05:17:24;;;;;;;2.70;2.60;;;;;;;3.55;68.64;102286.31;4415550;32;20072;-62
2021/04/25 05:19:49;;;;;;;3.08;2.97;;;;;;;3.62;69.78;102287.19;4410162;32;20084;-61
2021/04/25 05:22:15;;;;;;;2.90;2.80;;;;;;;3.69;70.09;102293.25;4414438;32;20492;-63
2021/04/25 05:24:40;;;;;;;2.65;2.55;;;;;;;3.76;69.85;102297.59;4409545;32;20065;-63
2021/04/25 05:27:06;;;;;;;3.25;3.05;;;;;;;3.78;68.54;102293.28;4410894;32;20694;-62
2021/04/25 05:29:31;;;;;;;2.60;2.50;;;;;;;3.82;68.95;102294.16;4421115;32;20163;-63
2021/04/25 05:31:56;;;;;;;2.87;2.78;;;;;;;3.90;68.57;102293.28;4412652;32;20065;-63
2021/04/25 05:34:22;;;;;;;2.75;2.65;;;;;;;3.74;68.35;102250.00;4410464;32;20217;-63
2021/04/25 05:36:47;;;;;;;2.70;2.60;;;;;;;4.10;67.84;102295.03;4412090;32;20526;-62
2021/04/25 05:39:12;;;;;;;3.45;3.25;;;;;;;4.12;67.41;102294.19;4409352;32;20068;-62
2021/04/25 05:41:38;;;;;;;2.90;2.80;;;;;;;3.81;66.60;102259.53;4409797;32;20617;-62
2021/04/25 05:44:04;;;;;;;3.05;2.95;;;;;;;4.18;67.00;102303.72;4413650;32;20104;-62
2021/04/25 05:46:29;;;;;;;3.00;2.90;;;;;;;4.22;66.52;102315.84;4416259;32;20903;-62
2021/04/25 05:48:55;;;;;;;2.70;2.60;;;;;;;4.25;67.04;102315.84;4411932;32;20211;-61
2021/04/25 05:51:20;;;;;;;2.80;2.70;;;;;;;4.09;65.66;102272.50;4410652;32;20566;-62
2021/04/25 05:53:45;;;;;;;2.80;2.70;;;;;;;4.42;65.89;102314.97;4410747;32;20087;-62
2021/04/25 05:56:11;;;;;;;2.70;2.60;;;;;;;4.43;65.63;102316.69;4408937;32;20087;-62
2021/04/25 05:58:36;;;;;;;4.05;3.85;;;;;;;4.45;66.48;102320.16;4409754;32;20069;-65
2021/04/25 06:01:02;;;;;;;2.87;2.78;;;;;;;4.40;66.12;102325.37;4403794;32;20072;-64
2021/04/25 06:03:30;;;;;;;3.00;2.90;;;;;;;3.50;66.53;102165.16;4406076;32;20104;-64
2021/04/25 06:05:55;;;;;;;3.00;2.90;;;;;;;4.52;65.43;102325.34;4411526;32;20115;-64
2021/04/25 06:08:21;;;;;;;3.30;3.20;;;;;;;4.51;65.24;102312.34;4406957;32;20077;-65
2021/04/25 06:10:46;;;;;;;3.00;2.90;;;;;;;4.58;64.14;102320.16;4413960;32;20805;-65
2021/04/25 06:13:12;;;;;;;2.80;2.70;;;;;;;4.58;65.05;102333.16;4415257;32;20176;-64
2021/04/25 06:15:37;;;;;;;3.00;2.90;;;;;;;4.65;64.88;102330.53;4410264;32;20704;-63
2021/04/25 06:18:03;;;;;;;2.75;2.65;;;;;;;4.68;63.81;102328.81;4414760;32;20067;-64
2021/04/25 06:20:29;;;;;;;3.00;2.90;;;;;;;4.79;64.48;102324.47;4415294;32;20080;-65
2021/04/25 06:22:55;;;;;;;3.00;2.90;;;;;;;4.89;62.70;102327.91;4412629;32;20194;-64
2021/04/25 06:25:20;;;;;;;2.85;2.75;;;;;;;5.12;63.62;102332.19;4413205;32;20091;-64
2021/04/25 06:27:45;;;;;;;3.00;2.90;;;;;;;5.20;62.00;102333.88;4414588;32;20069;-65
2021/04/25 06:30:12;;;;;;;3.00;2.90;;;;;;;4.79;60.92;102295.84;4411718;32;20080;-64
2021/04/25 06:32:37;;;;;;;2.70;2.60;;;;;;;5.17;59.89;102331.31;4425518;32;20077;-64
2021/04/25 06:35:03;;;;;;;2.70;2.60;;;;;;;5.01;58.51;102329.59;4414852;32;20073;-64
2021/04/25 06:37:29;;;;;;;2.90;2.80;;;;;;;4.96;55.80;102336.56;4411791;32;20084;-67
2021/04/25 06:39:54;;;;;;;3.12;3.03;;;;;;;4.37;55.81;102283.75;4413836;32;20099;-65
2021/04/25 06:42:19;;;;;;;3.00;2.90;;;;;;;4.87;56.04;102340.06;4427115;32;20073;-64
2021/04/25 06:44:45;;;;;;;2.97;2.87;;;;;;;4.98;55.15;102332.22;4425654;32;20092;-66
2021/04/25 06:47:10;;;;;;;2.90;2.80;;;;;;;5.11;54.51;102336.53;4413179;32;20150;-65
2021/04/25 06:49:35;;;;;;;2.80;2.70;;;;;;;5.22;55.72;102338.22;4426168;32;20119;-64
2021/04/25 06:52:01;;;;;;;2.80;2.70;;;;;;;5.02;55.72;102320.06;4413087;32;20080;-64
2021/04/25 06:54:27;;;;;;;3.00;2.80;;;;;;;5.32;54.38;102339.91;4414963;32;20739;-66
2021/04/25 06:56:52;;;;;;;2.97;2.87;;;;;;;5.33;54.04;102336.44;4425188;32;20069;-66
2021/04/25 06:59:17;;;;;;;3.05;2.95;;;;;;;5.47;54.07;102338.97;4411878;32;20071;-65
2021/04/25 07:01:43;;;;;;;3.03;2.92;;;;;;;5.60;54.74;102332.84;4426390;32;20170;-65
2021/04/25 07:04:08;;;;;;;3.08;2.97;;;;;;;5.22;53.81;102339.09;4412362;32;20103;-66
2021/04/25 07:06:33;;;;;;;2.85;2.75;;;;;;;4.56;53.76;102258.62;4425546;32;20151;-69
2021/04/25 07:08:59;;;;;;;3.00;2.90;;;;;;;3.94;56.41;102143.53;4425761;32;20069;-68
2021/04/25 07:11:25;;;;;;;3.00;2.90;;;;;;;5.10;55.31;102362.53;4425480;32;20076;-66
2021/04/25 07:13:50;;;;;;;2.80;2.70;;;;;;;5.15;54.76;102347.78;4425282;32;20166;-65
2021/04/25 07:16:16;;;;;;;2.90;2.80;;;;;;;5.29;54.22;102346.00;4414453;32;20088;-64
2021/04/25 07:18:41;;;;;;;3.08;2.97;;;;;;;4.77;54.16;102288.91;4426967;32;20594;-70
2021/04/25 07:21:06;;;;;;;2.90;2.80;;;;;;;5.05;55.02;102338.25;4424275;32;20162;-69
2021/04/25 07:23:32;;;;;;;2.97;2.87;;;;;;;5.30;54.98;102357.28;4412820;32;20091;-64
2021/04/25 07:25:57;;;;;;;3.00;2.90;;;;;;;5.46;53.91;102352.88;4439534;32;20114;-66
2021/04/25 07:28:25;;;;;;;2.85;2.75;;;;;;;5.62;52.80;102351.94;4412993;32;20634;-65
2021/04/25 07:30:51;;;;;;;3.08;2.97;;;;;;;5.56;53.06;102281.66;4416515;32;20597;-67
2021/04/25 07:33:17;;;;;;;2.95;2.85;;;;;;;5.72;52.35;102352.75;4414288;32;20073;-65
2021/04/25 07:35:43;;;;;;;3.00;2.90;;;;;;;5.78;51.36;102356.19;4425647;32;20088;-68
2021/04/25 07:38:08;;;;;;;2.90;2.80;;;;;;;5.98;52.77;102343.06;4423951;32;20080;-68
2021/04/25 07:40:34;;;;;;;2.80;2.70;;;;;;;6.06;51.60;102340.41;4411682;32;20119;-68
2021/04/25 07:42:59;;;;;;;3.10;3.00;;;;;;;6.30;51.50;102352.41;4413147;32;20069;-66
2021/04/25 07:45:25;;;;;;;3.30;3.20;;;;;;;6.53;51.50;102356.56;4414029;32;20711;-66
2021/04/25 07:47:50;;;;;;;3.30;3.20;;;;;;;6.49;48.80;102355.72;4414910;32;20085;-66
2021/04/25 07:50:15;;;;;;;2.90;2.80;;;;;;;6.26;50.23;102345.47;4411741;32;20091;-66
2021/04/25 07:52:41;;;;;;;2.97;2.87;;;;;;;6.29;50.97;102348.06;4395266;32;20073;-66
2021/04/25 07:55:07;;;;;;;3.20;3.10;;;;;;;6.26;50.49;102350.69;4413214;32;20070;-66
2021/04/25 07:57:33;;;;;;;3.17;3.08;;;;;;;6.57;50.37;102348.72;4413716;32;20102;-66
2021/04/25 07:59:58;;;;;;;3.30;3.20;;;;;;;6.83;49.55;102350.19;4400381;32;20069;-66
2021/04/25 08:02:23;;;;;;;3.10;3.00;;;;;;;6.92;48.73;102342.28;4411214;32;20082;-65
2021/04/25 08:04:50;;;;;;;3.17;3.08;;;;;;;7.07;49.02;102349.06;4411763;32;20081;-66
2021/04/25 08:07:16;;;;;;;3.20;3.10;;;;;;;7.10;47.83;102349.03;4411170;32;20178;-66
2021/04/25 08:09:41;;;;;;;3.35;3.25;;;;;;;6.74;49.19;102355.50;4409988;32;20081;-65
2021/04/25 08:12:07;;;;;;;3.10;3.00;;;;;;;6.70;49.11;102353.81;4411613;32;20091;-64
2021/04/25 08:14:32;;;;;;;3.20;3.10;;;;;;;6.78;49.14;102337.19;4412142;32;20105;-66
2021/04/25 08:16:57;;;;;;;2.95;2.85;;;;;;;6.64;49.46;102346.91;4412894;32;20096;-65
2021/04/25 08:19:23;;;;;;;3.20;3.10;;;;;;;6.51;49.70;102347.88;4412369;32;20077;-66
2021/04/25 08:21:48;;;;;;;3.12;3.03;;;;;;;5.45;51.38;102177.53;4409288;32;20119;-63
2021/04/25 08:24:13;;;;;;;3.10;3.00;;;;;;;6.36;51.32;102344.53;4409904;32;20924;-66
2021/04/25 08:26:40;;;;;;;3.85;3.65;;;;;;;6.43;50.94;102347.09;4411354;32;20061;-66
2021/04/25 08:29:05;;;;;;;3.25;3.15;;;;;;;6.13;51.60;102339.50;4410970;32;20084;-66
2021/04/25 08:31:30;;;;;;;3.00;2.90;;;;;;;6.10;51.28;102343.88;4419831;32;20588;-66
2021/04/25 08:33:56;;;;;;;3.20;3.10;;;;;;;6.26;50.84;102344.63;4409269;32;20125;-67
2021/04/25 08:36:21;;;;;;;2.87;2.78;;;;;;;6.27;51.46;102347.19;4412104;32;20084;-66
2021/04/25 08:38:47;;;;;;;2.97;2.87;;;;;;;6.37;50.50;102341.06;4410086;32;20621;-66
2021/04/25 08:41:16;;;;;;;3.10;3.00;;;;;;;6.25;50.54;102335.91;4412264;32;20077;-66
2021/04/25 08:43:42;;;;;;;3.17;3.08;;;;;;;6.36;50.71;102349.75;4412123;32;21201;-68
2021/04/25 08:46:07;;;;;;;3.50;3.40;;;;;;;6.46;50.56;102347.06;4410908;32;20629;-68
2021/04/25 08:48:33;;;;;;;3.37;3.28;;;;;;;6.72;51.10;102334.66;4413661;32;20260;-67
2021/04/25 08:50:58;;;;;;;3.30;3.20;;;;;;;6.01;49.38;102174.53;4426640;32;20607;-66
2021/04/25 08:53:23;;;;;;;3.47;3.37;;;;;;;7.20;47.82;102336.75;4411399;32;20510;-66
2021/04/25 08:55:49;;;;;;;3.45;3.35;;;;;;;7.49;48.51;102336.38;4412294;32;22649;-67
2021/04/25 08:58:14;;;;;;;3.20;3.10;;;;;;;7.92;46.75;102327.09;4410146;32;20072;-66
2021/04/25 09:00:40;;;;;;;3.10;3.00;;;;;;;8.22;47.08;102327.47;4411383;32;20101;-66
2021/04/25 09:03:05;;;;;;;3.28;3.17;;;;;;;8.02;47.73;102331.31;4404008;32;20169;-66
2021/04/25 09:05:30;;;;;;;3.25;3.15;;;;;;;7.91;46.22;102328.81;4411670;32;20747;-66
2021/04/25 09:07:57;;;;;;;3.20;3.10;;;;;;;7.92;47.58;102335.78;4413559;32;20611;-65
2021/04/25 09:10:42;;;;;;;3.20;3.10;;;;;;;7.84;45.15;102337.66;4426371;32;20164;-66
2021/04/25 09:13:22;;;;;;;3.35;3.25;;;;;;;7.76;46.86;102334.28;4411794;32;20230;-66
2021/04/25 09:15:48;;;;;;;3.30;3.20;;;;;;;7.54;46.49;102334.59;4412389;32;20304;-66
2021/04/25 09:18:13;;;;;;;3.35;3.25;;;;;;;7.59;48.51;102337.12;4399353;32;20111;-66
2021/04/25 09:20:44;;;;;;;3.08;2.97;;;;;;;7.72;47.35;102340.44;4413409;32;20950;-65
2021/04/25 09:23:27;;;;;;;3.40;3.30;;;;;;;7.78;46.19;102343.84;4412217;32;20606;-66
2021/04/25 09:26:06;;;;;;;3.37;3.28;;;;;;;7.88;47.02;102315.81;4414671;32;20753;-65
2021/04/25 09:28:31;;;;;;;3.37;3.28;;;;;;;8.09;46.51;102326.81;4411432;32;20262;-67
2021/04/25 09:31:07;;;;;;;3.30;3.20;;;;;;;8.04;46.89;102336.47;4425131;32;20142;-66
2021/04/25 09:33:49;;;;;;;3.37;3.28;;;;;;;7.93;45.38;102332.28;4423341;32;20080;-66
2021/04/25 09:36:17;;;;;;;3.37;3.28;;;;;;;7.69;45.43;102330.88;4420863;32;20103;-70
2021/04/25 09:38:42;;;;;;;3.33;3.22;;;;;;;8.02;46.98;102336.53;4412458;32;20096;-70
2021/04/25 09:41:08;;;;;;;3.50;3.40;;;;;;;7.92;45.53;102322.72;4407271;32;20135;-68
2021/04/25 09:43:40;;;;;;;3.40;3.30;;;;;;;8.16;45.34;102318.00;4407598;32;20085;-68
2021/04/25 09:46:05;;;;;;;3.10;3.00;;;;;;;7.71;46.33;102323.88;4408773;32;20080;-67
2021/04/25 09:48:34;;;;;;;3.20;3.10;;;;;;;7.92;47.16;102319.25;4409163;32;20115;-68
2021/04/25 09:51:12;;;;;;;3.50;3.40;;;;;;;7.21;43.97;102128.72;4413564;32;20095;-66
2021/04/25 09:53:42;;;;;;;3.20;3.10;;;;;;;8.52;45.14;102318.28;4420445;32;20681;-65
2021/04/25 09:56:09;;;;;;;3.33;3.22;;;;;;;8.09;45.67;102309.38;4415194;32;20057;-65
2021/04/25 09:58:48;;;;;;;3.50;3.35;;;;;;;8.75;43.94;102312.66;4414331;32;20112;-64
2021/04/25 10:01:34;;;;;;;3.40;3.30;;;;;;;8.36;43.02;102313.31;4416782;32;20692;-63
2021/04/25 10:04:00;;;;;;;3.30;3.20;;;;;;;8.45;43.53;102308.84;4425554;32;20651;-62
2021/04/25 10:06:26;;;;;;;3.20;3.10;;;;;;;7.94;43.51;102260.81;4409712;32;20084;-63
2021/04/25 10:08:52;;;;;;;3.40;3.30;;;;;;;8.38;43.91;102322.00;4424918;32;20084;-62
2021/04/25 10:11:18;;;;;;;3.20;3.10;;;;;;;8.49;46.58;102294.81;4409634;32;20061;-62
2021/04/25 10:13:47;;;;;;;3.28;3.17;;;;;;;8.55;42.72;102273.75;4410760;32;20967;-63
2021/04/25 10:16:13;;;;;;;3.45;3.25;;;;;;;8.34;43.57;102295.91;4413056;32;20396;-63
2021/04/25 10:18:38;;;;;;;3.12;3.03;;;;;;;8.62;43.37;102298.06;4430333;32;20549;-61
2021/04/25 10:21:04;;;;;;;3.72;3.53;;;;;;;8.65;45.76;102295.41;4412162;32;20103;-63
2021/04/25 10:23:30;;;;;;;3.22;3.12;;;;;;;8.81;47.55;102288.97;4410417;32;20703;-62
2021/04/25 10:25:55;;;;;;;3.30;3.20;;;;;;;8.69;44.92;102282.22;4438795;32;20095;-62
2021/04/25 10:28:39;;;;;;;3.20;3.10;;;;;;;8.98;45.51;102288.66;4411648;32;20084;-62
2021/04/25 10:31:06;;;;;;;3.35;3.25;;;;;;;9.46;44.93;102285.91;4417075;32;20064;-63
2021/04/25 10:34:16;;;;;;;3.20;3.10;;;;;;;9.36;42.74;102294.84;4420639;32;20227;-63
2021/04/25 10:36:48;;;;;;;4.15;3.83;;;;;;;9.34;43.40;102287.03;4424030;32;20115;-63
2021/04/25 10:39:38;;;;;;;3.50;3.40;;;;;;;8.80;44.98;102289.88;4436623;32;20072;-63
2021/04/25 10:42:24;;;;;;;3.10;3.00;;;;;;;8.90;43.06;102285.31;4423687;32;20460;-63
2021/04/25 10:45:07;;;;;;;3.92;3.72;;;;;;;8.88;42.62;102274.00;4422847;32;20194;-63
2021/04/25 10:47:35;;;;;;;3.40;3.20;;;;;;;8.84;43.99;102267.09;4413414;32;20082;-63
2021/04/25 10:50:13;;;;;;;3.20;3.10;;;;;;;9.28;43.65;102265.31;4425584;32;20652;-64
2021/04/25 10:52:38;;;;;;;3.35;3.25;;;;;;;9.57;41.50;102249.81;4424658;32;20078;-63
2021/04/25 10:55:28;;;;;;;3.20;3.10;;;;;;;9.55;41.81;102256.84;4412658;32;20768;-62
2021/04/25 10:57:57;;;;;;;3.22;3.12;;;;;;;9.17;42.59;102255.94;4412578;32;20219;-62
2021/04/25 11:00:38;;;;;;;4.03;3.83;;;;;;;9.47;42.79;102250.94;4432589;32;20934;-62
2021/04/25 11:03:10;;;;;;;3.45;3.35;;;;;;;9.53;41.48;102260.41;4427386;32;20841;-65
2021/04/25 11:05:36;;;;;;;3.15;3.05;;;;;;;9.42;40.34;102247.56;4427368;32;20195;-62
2021/04/25 11:08:22;;;;;;;3.20;3.10;;;;;;;9.43;40.51;102251.91;4430968;32;20126;-63
2021/04/25 11:10:52;;;;;;;3.50;3.40;;;;;;;9.56;40.19;102255.09;4420601;32;20257;-63
2021/04/25 11:13:40;;;;;;;3.30;3.20;;;;;;;9.71;40.33;102249.50;4413616;32;20080;-63
2021/04/25 11:16:23;;;;;;;3.40;3.30;;;;;;;9.94;42.59;102242.81;4426590;32;20084;-64
2021/04/25 11:18:52;;;;;;;;;;;;;;;10.21;42.14;102240.44;4408089;32;20138;-64
2021/04/25 11:21:34;;;;;;;3.28;3.17;;;;;;;10.31;42.03;102236.69;4441016;32;19979;-62
2021/04/25 11:24:05;;;;;;;3.25;3.15;;;;;;;10.17;40.09;102239.63;4440419;32;20089;-64
2021/04/25 11:26:34;;;;;;;3.60;3.40;;;;;;;9.87;40.47;102236.03;4426537;32;20662;-63
2021/04/25 11:29:01;;;;;;;3.97;3.65;;;;;;;10.17;41.57;102232.63;4426831;32;20084;-63
2021/04/25 11:31:44;;;;;;;3.70;3.50;;;;;;;10.50;39.87;102237.03;4420570;32;20064;-64
2021/04/25 11:34:25;;;;;;;3.30;3.20;;;;;;;10.46;40.11;102235.41;4439904;32;20080;-64